createdAt,value
2022-12-05T00:00:53.763Z,31.70
2022-12-05T00:10:59.759Z,28.00
2022-12-05T00:21:06.385Z,32.50
2022-12-05T00:31:16.259Z,27.60
2022-12-05T00:41:24.354Z,29.30
2022-12-05T00:51:32.259Z,30.00
2022-12-05T01:01:40.322Z,28.60
2022-12-05T01:11:46.523Z,28.60
2022-12-05T01:21:53.000Z,29.70
2022-12-05T01:31:58.890Z,31.00
2022-12-05T01:42:07.280Z,23.40
2022-12-05T01:52:17.019Z,31.80
2022-12-05T02:02:22.990Z,33.80
2022-12-05T02:12:28.955Z,31.30
2022-12-05T02:23:10.051Z,34.70
2022-12-05T02:33:24.632Z,26.20
2022-12-05T02:43:38.235Z,36.10
2022-12-05T02:53:47.933Z,31.30
2022-12-05T03:03:54.245Z,29.90
2022-12-05T03:14:04.208Z,32.20
2022-12-05T03:24:13.546Z,35.00
2022-12-05T03:34:27.271Z,36.70
2022-12-05T03:44:43.543Z,28.50
2022-12-05T03:54:54.401Z,28.60
2022-12-05T04:05:05.488Z,36.90
2022-12-05T04:15:16.039Z,35.10
2022-12-05T04:25:59.808Z,36.90
2022-12-05T04:36:13.108Z,41.10
2022-12-05T04:46:22.267Z,34.30
2022-12-05T04:56:34.659Z,27.30
2022-12-05T05:06:42.220Z,38.00
2022-12-05T05:16:48.549Z,33.30
2022-12-05T05:26:57.420Z,43.40
2022-12-05T05:37:03.495Z,39.00
2022-12-05T05:47:09.327Z,39.90
2022-12-05T05:57:20.103Z,35.40
2022-12-05T06:07:26.530Z,33.00
2022-12-05T06:17:32.659Z,33.00
2022-12-05T06:27:38.852Z,35.60
2022-12-05T06:37:45.244Z,35.40
2022-12-05T06:47:51.528Z,34.60
2022-12-05T06:57:58.126Z,33.80
2022-12-05T07:08:04.235Z,35.30
2022-12-05T07:18:10.214Z,29.50
2022-12-05T07:28:16.012Z,27.80
2022-12-05T07:38:22.156Z,37.90
2022-12-05T07:48:27.831Z,29.50
2022-12-05T07:58:35.285Z,30.40
2022-12-05T08:08:41.113Z,29.00
2022-12-05T08:18:48.730Z,35.00
2022-12-05T08:28:56.077Z,29.30
2022-12-05T08:39:08.358Z,31.40
2022-12-05T08:49:14.803Z,31.40
2022-12-05T08:59:23.814Z,34.00
2022-12-05T09:09:30.308Z,30.10
2022-12-05T09:19:39.871Z,28.40
2022-12-05T09:29:46.166Z,31.10
2022-12-05T09:39:52.273Z,30.00
2022-12-05T09:50:03.977Z,25.00
2022-12-05T10:00:13.690Z,27.90
2022-12-05T10:10:34.657Z,28.10
2022-12-05T10:20:48.773Z,28.80
2022-12-05T10:31:01.603Z,24.80
2022-12-05T10:41:09.683Z,26.70
2022-12-05T10:51:19.365Z,26.20
2022-12-05T11:01:26.951Z,29.10
2022-12-05T11:11:35.650Z,30.50
2022-12-05T11:21:46.218Z,35.00
2022-12-05T11:31:54.824Z,30.50
2022-12-05T11:42:35.475Z,33.20
2022-12-05T11:52:56.397Z,38.20
2022-12-05T12:03:46.033Z,39.50
2022-12-05T12:14:07.495Z,37.10
2022-12-05T12:24:26.394Z,41.70
2022-12-05T12:34:59.709Z,44.00
2022-12-05T12:45:42.150Z,40.80
2022-12-05T12:56:04.196Z,44.70
2022-12-05T13:06:25.696Z,35.40
2022-12-05T13:16:45.617Z,45.20
2022-12-05T13:26:52.402Z,49.70
2022-12-05T13:37:37.672Z,40.10
2022-12-05T13:47:56.964Z,46.30
2022-12-05T13:58:45.836Z,45.60
2022-12-05T14:08:56.631Z,38.10
2022-12-05T14:19:14.963Z,44.90
2022-12-05T14:29:38.642Z,44.60
2022-12-05T14:40:00.653Z,53.00
2022-12-05T14:50:38.559Z,49.60
2022-12-05T15:00:48.094Z,48.70
2022-12-05T15:11:28.326Z,48.70
2022-12-05T15:21:40.011Z,43.00
2022-12-05T15:32:15.803Z,44.60
2022-12-05T15:42:43.061Z,51.70
2022-12-05T15:53:04.000Z,45.80
2022-12-05T16:03:38.717Z,48.10
2022-12-05T16:24:21.535Z,44.20
2022-12-05T16:34:47.732Z,47.80
2022-12-05T16:45:03.550Z,42.40
2022-12-05T16:55:15.272Z,49.60
2022-12-05T17:05:22.424Z,48.20
2022-12-05T17:15:48.564Z,43.30
2022-12-05T17:25:58.162Z,43.50
2022-12-05T17:36:23.768Z,43.70
2022-12-05T17:46:49.369Z,45.50
2022-12-05T17:57:14.949Z,45.70
2022-12-05T18:07:27.745Z,42.70
2022-12-05T18:17:53.237Z,42.90
2022-12-05T18:28:19.680Z,42.00
2022-12-05T18:38:52.419Z,45.50
2022-12-05T18:49:05.334Z,43.90
2022-12-05T18:59:30.857Z,42.20
2022-12-05T19:09:56.551Z,44.00
2022-12-05T19:20:22.093Z,40.30
2022-12-05T19:30:47.526Z,45.50
2022-12-05T19:41:10.860Z,43.90
2022-12-05T19:51:22.137Z,43.30
2022-12-05T20:01:47.745Z,49.30
2022-12-05T20:12:13.346Z,43.80
2022-12-05T20:22:39.158Z,48.60
2022-12-05T20:33:04.717Z,47.30
2022-12-05T20:43:30.820Z,49.50
2022-12-05T20:53:56.771Z,46.30
2022-12-05T21:04:22.335Z,50.60
2022-12-05T21:14:48.158Z,50.30
2022-12-05T21:25:13.827Z,50.00
2022-12-05T21:35:39.385Z,44.50
2022-12-05T21:46:06.047Z,45.20
2022-12-05T21:56:31.649Z,44.30
2022-12-05T22:06:57.201Z,48.70
2022-12-05T22:17:22.728Z,50.20
2022-12-05T22:27:48.393Z,50.40
2022-12-05T22:38:13.953Z,55.40
2022-12-05T22:48:39.809Z,54.50
2022-12-05T22:59:06.627Z,60.10
2022-12-05T23:09:34.854Z,50.50
2022-12-05T23:20:00.772Z,53.00
2022-12-05T23:30:26.458Z,53.50
2022-12-05T23:41:02.398Z,51.70
2022-12-05T23:51:30.078Z,52.20
